sensor_id;sensor_type;location;lat;lon;timestamp;pressure;altitude;pressure_sealevel;temperature;humidity
71805;BME280;59654;52.216;5.616;2023-01-29T00:00:28;102781.78;;;2.15;83.37
71805;BME280;59654;52.216;5.616;2023-01-29T00:01:06;102782.72;;;2.17;83.20
71805;BME280;59654;52.216;5.616;2023-01-29T00:01:37;102778.34;;;2.18;83.89
71805;BME280;59654;52.216;5.616;2023-01-29T00:02:07;102781.03;;;2.19;83.74
71805;BME280;59654;52.216;5.616;2023-01-29T00:02:38;102779.25;;;2.20;83.51
71805;BME280;59654;52.216;5.616;2023-01-29T00:03:09;102775.78;;;2.21;83.72
71805;BME280;59654;52.216;5.616;2023-01-29T00:03:40;102784.66;;;2.24;83.28
71805;BME280;59654;52.216;5.616;2023-01-29T00:04:11;102777.63;;;2.23;83.31
71805;BME280;59654;52.216;5.616;2023-01-29T00:04:41;102775.81;;;2.22;83.26
71805;BME280;59654;52.216;5.616;2023-01-29T00:05:12;102775.81;;;2.22;83.18
71805;BME280;59654;52.216;5.616;2023-01-29T00:05:43;102770.53;;;2.21;83.39
71805;BME280;59654;52.216;5.616;2023-01-29T00:06:14;102778.47;;;2.22;83.81
71805;BME280;59654;52.216;5.616;2023-01-29T00:06:45;102776.69;;;2.21;83.60
71805;BME280;59654;52.216;5.616;2023-01-29T00:07:16;102773.16;;;2.21;83.46
71805;BME280;59654;52.216;5.616;2023-01-29T00:07:47;102765.25;;;2.21;83.87
71805;BME280;59654;52.216;5.616;2023-01-29T00:08:17;102773.16;;;2.21;83.75
71805;BME280;59654;52.216;5.616;2023-01-29T00:08:48;102773.19;;;2.22;83.67
71805;BME280;59654;52.216;5.616;2023-01-29T00:09:19;102768.72;;;2.20;83.39
71805;BME280;59654;52.216;5.616;2023-01-29T00:09:50;102764.31;;;2.17;83.77
71805;BME280;59654;52.216;5.616;2023-01-29T00:10:21;102766.06;;;2.17;83.48
71805;BME280;59654;52.216;5.616;2023-01-29T00:11:00;102772.25;;;2.19;83.63
71805;BME280;59654;52.216;5.616;2023-01-29T00:11:34;102766.97;;;2.19;83.04
71805;BME280;59654;52.216;5.616;2023-01-29T00:12:05;102767.88;;;2.19;83.25
71805;BME280;59654;52.216;5.616;2023-01-29T00:12:38;102769.63;;;2.19;83.85
71805;BME280;59654;52.216;5.616;2023-01-29T00:13:09;102764.34;;;2.19;83.42
71805;BME280;59654;52.216;5.616;2023-01-29T00:13:39;102770.53;;;2.21;83.65
71805;BME280;59654;52.216;5.616;2023-01-29T00:14:10;102760.00;;;2.21;83.85
71805;BME280;59654;52.216;5.616;2023-01-29T00:14:41;102760.03;;;2.22;83.53
71805;BME280;59654;52.216;5.616;2023-01-29T00:15:12;102754.81;;;2.24;83.74
71805;BME280;59654;52.216;5.616;2023-01-29T00:15:53;102761.88;;;2.25;83.54
71805;BME280;59654;52.216;5.616;2023-01-29T00:16:25;102758.38;;;2.26;83.81
71805;BME280;59654;52.216;5.616;2023-01-29T00:16:56;102760.13;;;2.25;84.02
71805;BME280;59654;52.216;5.616;2023-01-29T00:17:26;102758.31;;;2.23;83.88
71805;BME280;59654;52.216;5.616;2023-01-29T00:17:57;102750.41;;;2.23;82.99
71805;BME280;59654;52.216;5.616;2023-01-29T00:18:29;102760.97;;;2.24;83.30
71805;BME280;59654;52.216;5.616;2023-01-29T00:19:00;102755.72;;;2.24;83.63
71805;BME280;59654;52.216;5.616;2023-01-29T00:19:31;102746.03;;;2.23;83.52
71805;BME280;59654;52.216;5.616;2023-01-29T00:20:02;102752.16;;;2.22;83.55
71805;BME280;59654;52.216;5.616;2023-01-29T00:20:33;102741.63;;;2.22;83.87
71805;BME280;59654;52.216;5.616;2023-01-29T00:21:16;102753.09;;;2.24;83.82
71805;BME280;59654;52.216;5.616;2023-01-29T00:21:48;102748.63;;;2.22;83.95
71805;BME280;59654;52.216;5.616;2023-01-29T00:22:18;102744.25;;;2.22;83.50
71805;BME280;59654;52.216;5.616;2023-01-29T00:22:49;102747.78;;;2.23;84.10
71805;BME280;59654;52.216;5.616;2023-01-29T00:23:21;102747.81;;;2.24;84.18
71805;BME280;59654;52.216;5.616;2023-01-29T00:23:53;102751.34;;;2.25;83.78
71805;BME280;59654;52.216;5.616;2023-01-29T00:24:24;102752.16;;;2.22;84.14
71805;BME280;59654;52.216;5.616;2023-01-29T00:24:55;102744.25;;;2.22;83.73
71805;BME280;59654;52.216;5.616;2023-01-29T00:25:26;102748.66;;;2.23;84.67
71805;BME280;59654;52.216;5.616;2023-01-29T00:25:58;102744.28;;;2.24;84.29
71805;BME280;59654;52.216;5.616;2023-01-29T00:26:30;102745.19;;;2.24;83.78
71805;BME280;59654;52.216;5.616;2023-01-29T00:27:01;102748.66;;;2.23;84.14
71805;BME280;59654;52.216;5.616;2023-01-29T00:27:32;102743.41;;;2.23;84.23
71805;BME280;59654;52.216;5.616;2023-01-29T00:28:03;102744.28;;;2.24;83.78
71805;BME280;59654;52.216;5.616;2023-01-29T00:28:34;102740.81;;;2.25;83.66
71805;BME280;59654;52.216;5.616;2023-01-29T00:29:06;102746.97;;;2.25;83.92
71805;BME280;59654;52.216;5.616;2023-01-29T00:29:37;102739.91;;;2.24;83.96
71805;BME280;59654;52.216;5.616;2023-01-29T00:30:08;102749.56;;;2.24;83.58
71805;BME280;59654;52.216;5.616;2023-01-29T00:30:45;102737.28;;;2.24;83.25
71805;BME280;59654;52.216;5.616;2023-01-29T00:31:22;102741.63;;;2.22;83.46
71805;BME280;59654;52.216;5.616;2023-01-29T00:31:54;102738.19;;;2.25;83.42
71805;BME280;59654;52.216;5.616;2023-01-29T00:32:24;102738.19;;;2.25;83.72
71805;BME280;59654;52.216;5.616;2023-01-29T00:32:56;102741.75;;;2.27;84.15
71805;BME280;59654;52.216;5.616;2023-01-29T00:33:28;102733.81;;;2.25;84.13
71805;BME280;59654;52.216;5.616;2023-01-29T00:33:58;102739.88;;;2.23;83.13
71805;BME280;59654;52.216;5.616;2023-01-29T00:34:29;102746.03;;;2.23;83.13
71805;BME280;59654;52.216;5.616;2023-01-29T00:35:00;102736.34;;;2.22;83.34
71805;BME280;59654;52.216;5.616;2023-01-29T00:35:32;102748.63;;;2.22;83.43
71805;BME280;59654;52.216;5.616;2023-01-29T00:36:05;102746.00;;;2.22;83.87
71805;BME280;59654;52.216;5.616;2023-01-29T00:36:38;102746.00;;;2.22;83.79
71805;BME280;59654;52.216;5.616;2023-01-29T00:37:09;102740.72;;;2.22;84.32
71805;BME280;59654;52.216;5.616;2023-01-29T00:37:40;102749.56;;;2.24;84.06
71805;BME280;59654;52.216;5.616;2023-01-29T00:38:11;102746.94;;;2.24;84.11
71805;BME280;59654;52.216;5.616;2023-01-29T00:38:41;102742.47;;;2.21;83.67
71805;BME280;59654;52.216;5.616;2023-01-29T00:39:12;102746.84;;;2.21;84.05
71805;BME280;59654;52.216;5.616;2023-01-29T00:39:43;102745.94;;;2.20;83.51
71805;BME280;59654;52.216;5.616;2023-01-29T00:40:15;102751.25;;;2.22;83.45
71805;BME280;59654;52.216;5.616;2023-01-29T00:40:46;102745.09;;;2.21;83.75
71805;BME280;59654;52.216;5.616;2023-01-29T00:41:36;102746.00;;;2.22;83.59
71805;BME280;59654;52.216;5.616;2023-01-29T00:42:26;102748.66;;;2.23;83.72
71805;BME280;59654;52.216;5.616;2023-01-29T00:43:16;102746.06;;;2.25;83.87
71805;BME280;59654;52.216;5.616;2023-01-29T00:44:06;102738.19;;;2.25;84.02
71805;BME280;59654;52.216;5.616;2023-01-29T00:44:56;102739.97;;;2.26;84.56
71805;BME280;59654;52.216;5.616;2023-01-29T00:45:27;102747.00;;;2.27;84.47
71805;BME280;59654;52.216;5.616;2023-01-29T00:45:57;102738.19;;;2.25;84.32
71805;BME280;59654;52.216;5.616;2023-01-29T00:46:28;102741.75;;;2.27;84.38
71805;BME280;59654;52.216;5.616;2023-01-29T00:46:59;102731.22;;;2.27;84.17
71805;BME280;59654;52.216;5.616;2023-01-29T00:47:30;102738.28;;;2.28;83.57
71805;BME280;59654;52.216;5.616;2023-01-29T00:48:04;102736.53;;;2.28;84.03
71805;BME280;59654;52.216;5.616;2023-01-29T00:48:36;102743.56;;;2.30;83.32
71805;BME280;59654;52.216;5.616;2023-01-29T00:49:07;102738.31;;;2.30;83.94
71805;BME280;59654;52.216;5.616;2023-01-29T00:49:38;102742.69;;;2.29;83.93
71805;BME280;59654;52.216;5.616;2023-01-29T00:50:10;102747.09;;;2.30;83.54
71805;BME280;59654;52.216;5.616;2023-01-29T00:50:42;102741.84;;;2.30;84.00
71805;BME280;59654;52.216;5.616;2023-01-29T00:51:12;102741.00;;;2.31;83.78
71805;BME280;59654;52.216;5.616;2023-01-29T00:51:43;102742.72;;;2.31;84.00
71805;BME280;59654;52.216;5.616;2023-01-29T00:52:34;102741.78;;;2.28;83.79
71805;BME280;59654;52.216;5.616;2023-01-29T00:53:06;102729.47;;;2.27;84.00
71805;BME280;59654;52.216;5.616;2023-01-29T00:53:36;102740.91;;;2.28;83.79
71805;BME280;59654;52.216;5.616;2023-01-29T00:54:07;102731.25;;;2.28;83.61
71805;BME280;59654;52.216;5.616;2023-01-29T00:54:38;102740.94;;;2.30;83.59
71805;BME280;59654;52.216;5.616;2023-01-29T00:55:09;102732.19;;;2.31;84.14
71805;BME280;59654;52.216;5.616;2023-01-29T00:55:41;102729.53;;;2.29;83.93
71805;BME280;59654;52.216;5.616;2023-01-29T00:56:12;102732.16;;;2.29;83.92
71805;BME280;59654;52.216;5.616;2023-01-29T00:56:42;102736.56;;;2.30;84.26
71805;BME280;59654;52.216;5.616;2023-01-29T00:57:14;102732.19;;;2.31;84.26
71805;BME280;59654;52.216;5.616;2023-01-29T00:57:45;102739.19;;;2.30;84.19
71805;BME280;59654;52.216;5.616;2023-01-29T00:58:16;102727.81;;;2.31;83.88
71805;BME280;59654;52.216;5.616;2023-01-29T00:58:51;102731.34;;;2.32;84.19
71805;BME280;59654;52.216;5.616;2023-01-29T00:59:22;102736.63;;;2.32;83.75
71805;BME280;59654;52.216;5.616;2023-01-29T00:59:53;102736.56;;;2.30;83.66
71805;BME280;59654;52.216;5.616;2023-01-29T01:00:24;102726.94;;;2.31;83.50
71805;BME280;59654;52.216;5.616;2023-01-29T01:00:55;102732.19;;;2.31;83.31
71805;BME280;59654;52.216;5.616;2023-01-29T01:01:26;102731.31;;;2.30;83.28
71805;BME280;59654;52.216;5.616;2023-01-29T01:02:16;102733.97;;;2.32;83.59
71805;BME280;59654;52.216;5.616;2023-01-29T01:03:09;102734.88;;;2.32;83.39
71805;BME280;59654;52.216;5.616;2023-01-29T01:03:40;102735.78;;;2.33;84.01
71805;BME280;59654;52.216;5.616;2023-01-29T01:04:12;102738.44;;;2.34;83.79
71805;BME280;59654;52.216;5.616;2023-01-29T01:04:43;102741.91;;;2.33;83.85
71805;BME280;59654;52.216;5.616;2023-01-29T01:05:18;102734.88;;;2.32;83.14
71805;BME280;59654;52.216;5.616;2023-01-29T01:05:49;102739.28;;;2.33;83.59
71805;BME280;59654;52.216;5.616;2023-01-29T01:06:19;102730.53;;;2.34;83.48
71805;BME280;59654;52.216;5.616;2023-01-29T01:06:50;102735.81;;;2.34;83.44
71805;BME280;59654;52.216;5.616;2023-01-29T01:07:21;102727.06;;;2.35;83.23
71805;BME280;59654;52.216;5.616;2023-01-29T01:07:55;102737.50;;;2.32;83.59
71805;BME280;59654;52.216;5.616;2023-01-29T01:08:27;102732.25;;;2.32;83.35
71805;BME280;59654;52.216;5.616;2023-01-29T01:09:17;102734.03;;;2.33;83.84
71805;BME280;59654;52.216;5.616;2023-01-29T01:10:08;102725.19;;;2.31;83.75
71805;BME280;59654;52.216;5.616;2023-01-29T01:10:58;102726.09;;;2.32;84.18
71805;BME280;59654;52.216;5.616;2023-01-29T01:11:29;102719.03;;;2.31;84.29
71805;BME280;59654;52.216;5.616;2023-01-29T01:12:00;102725.25;;;2.33;84.21
71805;BME280;59654;52.216;5.616;2023-01-29T01:12:31;102721.72;;;2.32;83.91
71805;BME280;59654;52.216;5.616;2023-01-29T01:13:05;102722.59;;;2.33;84.18
71805;BME280;59654;52.216;5.616;2023-01-29T01:13:36;102723.50;;;2.33;83.77
71805;BME280;59654;52.216;5.616;2023-01-29T01:14:07;102726.97;;;2.32;83.89
71805;BME280;59654;52.216;5.616;2023-01-29T01:14:38;102723.47;;;2.32;84.45
71805;BME280;59654;52.216;5.616;2023-01-29T01:15:12;102726.09;;;2.32;84.06
71805;BME280;59654;52.216;5.616;2023-01-29T01:15:44;102726.09;;;2.32;84.41
71805;BME280;59654;52.216;5.616;2023-01-29T01:16:16;102726.09;;;2.32;83.88
71805;BME280;59654;52.216;5.616;2023-01-29T01:16:48;102719.94;;;2.31;84.20
71805;BME280;59654;52.216;5.616;2023-01-29T01:17:19;102721.72;;;2.32;84.64
71805;BME280;59654;52.216;5.616;2023-01-29T01:17:55;102713.81;;;2.32;84.01
71805;BME280;59654;52.216;5.616;2023-01-29T01:18:29;102708.56;;;2.32;83.79
71805;BME280;59654;52.216;5.616;2023-01-29T01:19:02;102714.72;;;2.33;84.44
71805;BME280;59654;52.216;5.616;2023-01-29T01:19:34;102712.09;;;2.33;84.35
71805;BME280;59654;52.216;5.616;2023-01-29T01:20:05;102712.09;;;2.33;84.24
71805;BME280;59654;52.216;5.616;2023-01-29T01:20:36;102711.22;;;2.34;84.54
71805;BME280;59654;52.216;5.616;2023-01-29T01:21:07;102714.75;;;2.34;84.58
71805;BME280;59654;52.216;5.616;2023-01-29T01:21:39;102707.75;;;2.35;84.68
71805;BME280;59654;52.216;5.616;2023-01-29T01:22:10;102704.22;;;2.34;84.06
71805;BME280;59654;52.216;5.616;2023-01-29T01:22:41;102710.38;;;2.35;84.63
71805;BME280;59654;52.216;5.616;2023-01-29T01:23:12;102715.66;;;2.36;84.74
71805;BME280;59654;52.216;5.616;2023-01-29T01:23:43;102712.16;;;2.36;84.11
71805;BME280;59654;52.216;5.616;2023-01-29T01:24:13;102711.28;;;2.35;84.15
71805;BME280;59654;52.216;5.616;2023-01-29T01:24:44;102709.50;;;2.34;84.49
71805;BME280;59654;52.216;5.616;2023-01-29T01:25:15;102713.00;;;2.35;84.61
71805;BME280;59654;52.216;5.616;2023-01-29T01:25:48;102713.91;;;2.35;84.29
71805;BME280;59654;52.216;5.616;2023-01-29T01:26:19;102714.75;;;2.34;84.67
71805;BME280;59654;52.216;5.616;2023-01-29T01:26:49;102717.38;;;2.34;84.48
71805;BME280;59654;52.216;5.616;2023-01-29T01:27:20;102711.19;;;2.32;84.32
71805;BME280;59654;52.216;5.616;2023-01-29T01:27:56;102715.53;;;2.30;84.26
71805;BME280;59654;52.216;5.616;2023-01-29T01:28:28;102711.16;;;2.31;84.09
71805;BME280;59654;52.216;5.616;2023-01-29T01:28:59;102718.19;;;2.32;84.27
71805;BME280;59654;52.216;5.616;2023-01-29T01:29:30;102713.81;;;2.32;84.14
71805;BME280;59654;52.216;5.616;2023-01-29T01:30:01;102712.09;;;2.33;84.07
71805;BME280;59654;52.216;5.616;2023-01-29T01:30:31;102712.13;;;2.34;84.06
71805;BME280;59654;52.216;5.616;2023-01-29T01:31:12;102718.28;;;2.35;84.02
71805;BME280;59654;52.216;5.616;2023-01-29T01:31:43;102717.38;;;2.34;84.76
71805;BME280;59654;52.216;5.616;2023-01-29T01:32:14;102718.25;;;2.33;84.15
71805;BME280;59654;52.216;5.616;2023-01-29T01:32:46;102717.25;;;2.30;84.11
71805;BME280;59654;52.216;5.616;2023-01-29T01:33:17;102718.16;;;2.30;83.50
71805;BME280;59654;52.216;5.616;2023-01-29T01:33:49;102717.22;;;2.28;83.52
71805;BME280;59654;52.216;5.616;2023-01-29T01:34:21;102719.00;;;2.29;84.10
71805;BME280;59654;52.216;5.616;2023-01-29T01:34:51;102719.88;;;2.30;84.08
71805;BME280;59654;52.216;5.616;2023-01-29T01:35:23;102722.53;;;2.30;83.93
71805;BME280;59654;52.216;5.616;2023-01-29T01:35:53;102723.31;;;2.27;84.09
71805;BME280;59654;52.216;5.616;2023-01-29T01:36:25;102721.63;;;2.29;83.99
71805;BME280;59654;52.216;5.616;2023-01-29T01:36:56;102725.19;;;2.31;84.21
71805;BME280;59654;52.216;5.616;2023-01-29T01:37:27;102729.63;;;2.32;84.17
71805;BME280;59654;52.216;5.616;2023-01-29T01:37:57;102727.81;;;2.31;84.22
71805;BME280;59654;52.216;5.616;2023-01-29T01:38:28;102726.09;;;2.32;84.31
71805;BME280;59654;52.216;5.616;2023-01-29T01:38:59;102733.09;;;2.31;84.50
71805;BME280;59654;52.216;5.616;2023-01-29T01:39:30;102731.31;;;2.30;83.49
71805;BME280;59654;52.216;5.616;2023-01-29T01:40:00;102733.94;;;2.30;84.02
71805;BME280;59654;52.216;5.616;2023-01-29T01:40:32;102725.19;;;2.31;83.96
71805;BME280;59654;52.216;5.616;2023-01-29T01:41:03;102726.97;;;2.32;83.47
71805;BME280;59654;52.216;5.616;2023-01-29T01:41:34;102730.47;;;2.31;83.36
71805;BME280;59654;52.216;5.616;2023-01-29T01:42:09;102735.72;;;2.31;83.66
71805;BME280;59654;52.216;5.616;2023-01-29T01:42:43;102729.56;;;2.31;83.67
71805;BME280;59654;52.216;5.616;2023-01-29T01:43:14;102727.81;;;2.31;83.72
71805;BME280;59654;52.216;5.616;2023-01-29T01:43:54;102734.78;;;2.29;84.50
71805;BME280;59654;52.216;5.616;2023-01-29T01:44:55;102733.03;;;2.30;84.03
71805;BME280;59654;52.216;5.616;2023-01-29T01:45:34;102735.63;;;2.28;83.59
71805;BME280;59654;52.216;5.616;2023-01-29T01:46:05;102728.59;;;2.27;84.13
71805;BME280;59654;52.216;5.616;2023-01-29T01:46:36;102734.78;;;2.29;84.01
71805;BME280;59654;52.216;5.616;2023-01-29T01:47:07;102734.78;;;2.29;83.67
71805;BME280;59654;52.216;5.616;2023-01-29T01:47:46;102729.53;;;2.29;83.73
71805;BME280;59654;52.216;5.616;2023-01-29T01:48:24;102728.69;;;2.30;84.00
71805;BME280;59654;52.216;5.616;2023-01-29T01:49:17;102731.34;;;2.32;84.49
71805;BME280;59654;52.216;5.616;2023-01-29T01:49:49;102728.69;;;2.30;84.13
71805;BME280;59654;52.216;5.616;2023-01-29T01:51:14;102739.19;;;2.30;84.11
71805;BME280;59654;52.216;5.616;2023-01-29T01:51:26;102725.19;;;2.31;84.49
71805;BME280;59654;52.216;5.616;2023-01-29T01:51:58;102729.66;;;2.34;84.14
71805;BME280;59654;52.216;5.616;2023-01-29T01:52:31;102731.41;;;2.33;83.92
71805;BME280;59654;52.216;5.616;2023-01-29T01:53:11;102736.66;;;2.33;83.99
71805;BME280;59654;52.216;5.616;2023-01-29T01:53:51;102731.41;;;2.33;83.87
71805;BME280;59654;52.216;5.616;2023-01-29T01:54:32;102734.03;;;2.33;83.91
71805;BME280;59654;52.216;5.616;2023-01-29T01:55:03;102736.66;;;2.33;84.30
71805;BME280;59654;52.216;5.616;2023-01-29T01:55:49;102738.34;;;2.31;84.23
71805;BME280;59654;52.216;5.616;2023-01-29T01:56:28;102737.47;;;2.31;84.22
71805;BME280;59654;52.216;5.616;2023-01-29T01:57:17;102726.97;;;2.32;84.84
71805;BME280;59654;52.216;5.616;2023-01-29T01:58:09;102733.09;;;2.31;84.86
71805;BME280;59654;52.216;5.616;2023-01-29T01:58:49;102736.66;;;2.33;84.73
71805;BME280;59654;52.216;5.616;2023-01-29T01:59:22;102733.13;;;2.33;84.33
71805;BME280;59654;52.216;5.616;2023-01-29T02:00:01;102726.13;;;2.33;84.51
71805;BME280;59654;52.216;5.616;2023-01-29T02:00:44;102733.97;;;2.32;84.29
71805;BME280;59654;52.216;5.616;2023-01-29T02:01:16;102726.09;;;2.32;84.20
71805;BME280;59654;52.216;5.616;2023-01-29T02:01:52;102728.72;;;2.32;84.50
71805;BME280;59654;52.216;5.616;2023-01-29T02:02:24;102729.66;;;2.34;84.39
71805;BME280;59654;52.216;5.616;2023-01-29T02:03:16;102724.41;;;2.34;84.51
71805;BME280;59654;52.216;5.616;2023-01-29T02:04:13;102727.91;;;2.34;84.10
71805;BME280;59654;52.216;5.616;2023-01-29T02:05:07;102717.34;;;2.33;84.22
71805;BME280;59654;52.216;5.616;2023-01-29T02:05:59;102726.13;;;2.33;84.12
71805;BME280;59654;52.216;5.616;2023-01-29T02:06:51;102726.91;;;2.29;84.15
71805;BME280;59654;52.216;5.616;2023-01-29T02:07:46;102726.97;;;2.32;84.71
71805;BME280;59654;52.216;5.616;2023-01-29T02:08:52;102731.34;;;2.32;84.45
71805;BME280;59654;52.216;5.616;2023-01-29T02:10:26;102737.50;;;2.32;84.51
71805;BME280;59654;52.216;5.616;2023-01-29T02:11:00;102724.34;;;2.32;84.32
71805;BME280;59654;52.216;5.616;2023-01-29T02:11:31;102734.03;;;2.33;84.34
71805;BME280;59654;52.216;5.616;2023-01-29T02:12:10;102727.91;;;2.34;84.35
71805;BME280;59654;52.216;5.616;2023-01-29T02:12:44;102727.91;;;2.34;84.53
71805;BME280;59654;52.216;5.616;2023-01-29T02:13:15;102725.25;;;2.33;84.68
71805;BME280;59654;52.216;5.616;2023-01-29T02:13:48;102726.09;;;2.32;84.82
71805;BME280;59654;52.216;5.616;2023-01-29T02:14:29;102721.63;;;2.29;84.43
71805;BME280;59654;52.216;5.616;2023-01-29T02:15:02;102723.31;;;2.27;84.39
71805;BME280;59654;52.216;5.616;2023-01-29T02:15:33;102724.22;;;2.27;84.56
71805;BME280;59654;52.216;5.616;2023-01-29T02:16:06;102724.19;;;2.26;85.04
71805;BME280;59654;52.216;5.616;2023-01-29T02:16:37;102727.69;;;2.26;84.93
71805;BME280;59654;52.216;5.616;2023-01-29T02:17:14;102725.06;;;2.26;84.38
71805;BME280;59654;52.216;5.616;2023-01-29T02:17:47;102725.97;;;2.27;84.76
71805;BME280;59654;52.216;5.616;2023-01-29T02:18:20;102728.63;;;2.28;84.89
71805;BME280;59654;52.216;5.616;2023-01-29T02:18:52;102726.91;;;2.29;84.53
71805;BME280;59654;52.216;5.616;2023-01-29T02:20:30;102726.91;;;2.29;85.14
71805;BME280;59654;52.216;5.616;2023-01-29T02:25:03;102733.19;;;2.34;84.38
71805;BME280;59654;52.216;5.616;2023-01-29T02:26:12;102735.72;;;2.31;84.39
71805;BME280;59654;52.216;5.616;2023-01-29T02:28:50;102733.19;;;2.34;84.94
71805;BME280;59654;52.216;5.616;2023-01-29T02:30:07;102727.88;;;2.33;84.38
71805;BME280;59654;52.216;5.616;2023-01-29T02:33:02;102735.88;;;2.37;84.28
71805;BME280;59654;52.216;5.616;2023-01-29T02:36:01;102733.94;;;2.30;84.25
71805;BME280;59654;52.216;5.616;2023-01-29T02:37:04;102736.63;;;2.32;84.88
71805;BME280;59654;52.216;5.616;2023-01-29T02:40:08;102747.19;;;2.33;84.28
71805;BME280;59654;52.216;5.616;2023-01-29T02:40:58;102741.91;;;2.33;84.82
71805;BME280;59654;52.216;5.616;2023-01-29T02:41:59;102749.81;;;2.33;84.90
71805;BME280;59654;52.216;5.616;2023-01-29T02:42:50;102741.91;;;2.33;84.61
71805;BME280;59654;52.216;5.616;2023-01-29T02:45:04;102749.88;;;2.35;84.38
71805;BME280;59654;52.216;5.616;2023-01-29T02:45:52;102745.44;;;2.34;84.66
71805;BME280;59654;52.216;5.616;2023-01-29T02:47:04;102745.50;;;2.35;84.16
71805;BME280;59654;52.216;5.616;2023-01-29T02:48:05;102751.59;;;2.34;83.78
71805;BME280;59654;52.216;5.616;2023-01-29T02:48:44;102743.66;;;2.33;84.38
71805;BME280;59654;52.216;5.616;2023-01-29T02:50:02;102750.75;;;2.35;84.00
71805;BME280;59654;52.216;5.616;2023-01-29T02:50:51;102752.50;;;2.36;84.48
71805;BME280;59654;52.216;5.616;2023-01-29T02:51:50;102758.66;;;2.35;83.90
71805;BME280;59654;52.216;5.616;2023-01-29T02:52:35;102756.03;;;2.35;84.14
71805;BME280;59654;52.216;5.616;2023-01-29T02:53:17;102753.38;;;2.35;83.95
71805;BME280;59654;52.216;5.616;2023-01-29T02:56:12;102745.50;;;2.37;83.85
71805;BME280;59654;52.216;5.616;2023-01-29T02:56:55;102748.13;;;2.37;83.86
71805;BME280;59654;52.216;5.616;2023-01-29T02:57:36;102756.03;;;2.37;84.09
71805;BME280;59654;52.216;5.616;2023-01-29T02:58:19;102747.25;;;2.36;83.65
71805;BME280;59654;52.216;5.616;2023-01-29T02:59:12;102756.03;;;2.35;84.29
71805;BME280;59654;52.216;5.616;2023-01-29T02:59:56;102753.38;;;2.35;84.46
71805;BME280;59654;52.216;5.616;2023-01-29T03:00:37;102749.00;;;2.36;83.79
71805;BME280;59654;52.216;5.616;2023-01-29T03:02:04;102754.28;;;2.36;84.11
71805;BME280;59654;52.216;5.616;2023-01-29T03:02:26;102749.00;;;2.36;84.01
71805;BME280;59654;52.216;5.616;2023-01-29T03:03:20;102741.97;;;2.36;84.15
71805;BME280;59654;52.216;5.616;2023-01-29T03:04:03;102741.13;;;2.36;83.95
71805;BME280;59654;52.216;5.616;2023-01-29T03:04:47;102743.75;;;2.37;83.94
71805;BME280;59654;52.216;5.616;2023-01-29T03:05:30;102739.38;;;2.38;84.18
71805;BME280;59654;52.216;5.616;2023-01-29T03:07:07;102736.75;;;2.38;84.22
71805;BME280;59654;52.216;5.616;2023-01-29T03:07:31;102736.69;;;2.35;83.95
71805;BME280;59654;52.216;5.616;2023-01-29T03:08:22;102731.44;;;2.35;84.48
71805;BME280;59654;52.216;5.616;2023-01-29T03:09:13;102731.44;;;2.35;84.38
71805;BME280;59654;52.216;5.616;2023-01-29T03:09:52;102734.88;;;2.32;84.45
71805;BME280;59654;52.216;5.616;2023-01-29T03:10:36;102736.63;;;2.32;83.92
71805;BME280;59654;52.216;5.616;2023-01-29T03:11:14;102731.41;;;2.33;84.27
71805;BME280;59654;52.216;5.616;2023-01-29T03:11:52;102738.31;;;2.30;84.34
71805;BME280;59654;52.216;5.616;2023-01-29T03:12:30;102731.22;;;2.27;83.90
71805;BME280;59654;52.216;5.616;2023-01-29T03:14:16;102726.81;;;2.26;84.07
71805;BME280;59654;52.216;5.616;2023-01-29T03:15:01;102723.25;;;2.24;84.57
71805;BME280;59654;52.216;5.616;2023-01-29T03:16:01;102716.25;;;2.24;85.05
71805;BME280;59654;52.216;5.616;2023-01-29T03:16:50;102719.81;;;2.26;84.58
71805;BME280;59654;52.216;5.616;2023-01-29T03:17:31;102711.94;;;2.28;85.21
71805;BME280;59654;52.216;5.616;2023-01-29T03:18:10;102719.88;;;2.30;85.17
71805;BME280;59654;52.216;5.616;2023-01-29T03:19:06;102716.41;;;2.31;84.54
71805;BME280;59654;52.216;5.616;2023-01-29T03:19:47;102721.72;;;2.32;84.89
71805;BME280;59654;52.216;5.616;2023-01-29T03:20:34;102715.59;;;2.33;85.12
71805;BME280;59654;52.216;5.616;2023-01-29T03:21:16;102716.41;;;2.31;84.52
71805;BME280;59654;52.216;5.616;2023-01-29T03:22:12;102715.44;;;2.27;84.92
71805;BME280;59654;52.216;5.616;2023-01-29T03:22:52;102713.69;;;2.27;84.51
71805;BME280;59654;52.216;5.616;2023-01-29T03:23:30;102714.59;;;2.28;84.85
71805;BME280;59654;52.216;5.616;2023-01-29T03:24:34;102707.53;;;2.27;84.96
71805;BME280;59654;52.216;5.616;2023-01-29T03:25:35;102708.47;;;2.29;85.16
71805;BME280;59654;52.216;5.616;2023-01-29T03:26:25;102710.31;;;2.32;84.83
71805;BME280;59654;52.216;5.616;2023-01-29T03:27:19;102707.66;;;2.32;85.17
71805;BME280;59654;52.216;5.616;2023-01-29T03:28:16;102704.16;;;2.31;84.74
71805;BME280;59654;52.216;5.616;2023-01-29T03:29:09;102702.34;;;2.30;84.66
71805;BME280;59654;52.216;5.616;2023-01-29T03:30:03;102710.22;;;2.28;84.30
71805;BME280;59654;52.216;5.616;2023-01-29T03:31:05;102700.56;;;2.29;84.62
71805;BME280;59654;52.216;5.616;2023-01-29T03:32:00;102701.47;;;2.30;84.79
71805;BME280;59654;52.216;5.616;2023-01-29T03:32:35;102697.94;;;2.29;85.19
71805;BME280;59654;52.216;5.616;2023-01-29T03:33:11;102705.03;;;2.32;84.86
71805;BME280;59654;52.216;5.616;2023-01-29T03:33:49;102702.41;;;2.32;85.02
71805;BME280;59654;52.216;5.616;2023-01-29T03:34:24;102698.88;;;2.31;84.55
71805;BME280;59654;52.216;5.616;2023-01-29T03:35:10;102701.50;;;2.31;85.17
71805;BME280;59654;52.216;5.616;2023-01-29T03:36:05;102698.03;;;2.32;84.58
71805;BME280;59654;52.216;5.616;2023-01-29T03:36:51;102699.72;;;2.30;84.54
71805;BME280;59654;52.216;5.616;2023-01-29T03:37:32;102688.34;;;2.31;85.07
71805;BME280;59654;52.216;5.616;2023-01-29T03:38:10;102683.09;;;2.31;84.22
71805;BME280;59654;52.216;5.616;2023-01-29T03:38:42;102686.59;;;2.32;84.78
71805;BME280;59654;52.216;5.616;2023-01-29T03:39:15;102688.38;;;2.33;84.35